KFET/FET METAR and TAF weather

Enter ICAO airport designator
Station Type Date Time Source
KFET METAR 2020/08/15 16:35 UTC NOAA

KFET 151635Z AUTO 07004KT 10SM CLR 26/11 A3011 RMK AO2 T02600111


Station Type Date Time Source
KFET Decoded METAR 2020/08/15 16:35 UTC NOAA

Fremont Municipal Airport, NE, United States (KFET) 41-27N 096-31W
Aug 15, 2020 - 12:35 PM EDT / 2020.08.15 1635 UTC
Wind: from the ENE (070 degrees) at 5 MPH (4 KT):0
Visibility: 10 mile(s):0
Sky conditions: clear
Temperature: 78.8 F (26.0 C)
Dew Point: 52.0 F (11.1 C)
Relative Humidity: 39%
Pressure (altimeter): 30.11 in. Hg (1019 hPa)
ob: KFET 151635Z AUTO 07004KT 10SM CLR 26/11 A3011 RMK AO2 T02600111
cycle: 16

Station Type Date Time Source
KFET TAF UTC NOAA

Error!

Example: see airport list